YWLM

Newcastle Airport

Williamtown, Australia
TAF AMD YWLM 202349Z 2100/2124 14014KT 9999 -SHRA SCT025 FM210800 14007KT 9999 -SHRA SCT025 FM211300 19003KT 9999 SCT025 FM212200 20008KT 9999 SCT050
Issued Valid From Valid To
Apr-20 @ 23:49 UTC
(4 hours ago)
Apr-21 @ 00:00 UTC
(4 hours ago)
Apr-22 @ 00:00 UTC
(in 20 hours)
Apr-21 @ 00:00 to Apr-21 @ 08:00
TAF AMD YWLM 202349Z 2100/2124 14014KT 9999 -SHRA SCT025
Wind Visibility Clouds Conditions
140° at 14 knots 10,000+ meters
  • Scattered at 2,500' AGL
  • Light Rain
From Apr-21 @ 08:00 to Apr-21 @ 13:00
FM210800 14007KT 9999 -SHRA SCT025
Wind Visibility Clouds Conditions
140° at 7 knots 10,000+ meters
  • Scattered at 2,500' AGL
  • Light Rain
From Apr-21 @ 13:00 to Apr-21 @ 22:00
FM211300 19003KT 9999 SCT025
Wind Visibility Clouds
190° at 3 knots 10,000+ meters
  • Scattered at 2,500' AGL
From Apr-21 @ 22:00 to Apr-22 @ 00:00
FM212200 20008KT 9999 SCT050
Wind Visibility Clouds
200° at 8 knots 10,000+ meters
  • Scattered at 5,000' AGL
TAF AMD YWLM 202349Z 2100/2124 14014KT 9999 -SHRA SCT025 FM210800 14007KT 9999 -SHRA SCT025 FM211300 19003KT 9999 SCT025 FM212200 20008KT 9999 SCT050
Issued Apr-20 @ 23:49 UTC
(4 hours ago)
Valid From Apr-21 @ 00:00 UTC
(4 hours ago)
Valid To Apr-22 @ 00:00 UTC
(in 20 hours)
Apr-21 @ 00:00 - Apr-21 @ 08:00
Wind Visibility
140° at 14 knots 10,000+ meters
Clouds
  • Scattered at 2,500' AGL
Conditions
  • Light Rain
From Apr-21 @ 08:00 - Apr-21 @ 13:00
Wind Visibility
140° at 7 knots 10,000+ meters
Clouds
  • Scattered at 2,500' AGL
Conditions
  • Light Rain
From Apr-21 @ 13:00 - Apr-21 @ 22:00
Wind Visibility
190° at 3 knots 10,000+ meters
Clouds
  • Scattered at 2,500' AGL
From Apr-21 @ 22:00 - Apr-22 @ 00:00
Wind Visibility
200° at 8 knots 10,000+ meters
Clouds
  • Scattered at 5,000' AGL